Time,TemperatureF,DewpointF,PressureIn,WindDirection,WindDirectionDegrees,WindSpeedMPH,WindSpeedGustMPH,Humidity,HourlyPrecipIn,Conditions,Clouds,dailyrainin,SolarRadiationWatts/m^2,SoftwareType,DateUTC
2013-03-28 11:12:00,44.0,21.0,-100.00,ESE,113,3.0,12.0,39,-99.99,,,-99.99,343.000000,,2013-03-28 18:12:00,
2013-03-28 11:52:00,44.0,21.0,-100.00,ESE,113,3.0,12.0,39,-99.99,,,-99.99,343.000000,,2013-03-28 18:52:00,
2013-03-28 12:02:00,44.0,21.0,-100.00,ESE,113,3.0,12.0,39,-99.99,,,-99.99,343.000000,,2013-03-28 19:02:00,
2013-03-28 12:12:00,47.0,25.0,-100.00,ESE,115,6.0,11.0,41,0.00,,,0.00,389.000000,,2013-03-28 19:12:00,
2013-03-28 12:42:00,47.0,25.0,-100.00,ESE,115,6.0,11.0,41,0.00,,,0.00,389.000000,,2013-03-28 19:42:00,
2013-03-28 12:52:00,47.0,25.0,-100.00,ESE,115,6.0,11.0,41,0.00,,,0.00,389.000000,,2013-03-28 19:52:00,
2013-03-28 13:02:00,47.0,25.0,-100.00,ESE,115,6.0,11.0,41,0.00,,,0.00,389.000000,,2013-03-28 20:02:00,
2013-03-28 13:33:00,44.0,23.0,-100.00,ESE,110,4.0,11.0,43,0.00,,,0.00,390.000000,,2013-03-28 20:33:00,
2013-03-28 13:42:00,44.0,23.0,-100.00,ESE,110,4.0,11.0,43,0.00,,,0.00,390.000000,,2013-03-28 20:42:00,
2013-03-28 13:53:00,44.0,23.0,-100.00,ESE,110,4.0,11.0,43,0.00,,,0.00,390.000000,,2013-03-28 20:53:00,
2013-03-28 14:02:00,44.0,23.0,-100.00,ESE,110,4.0,11.0,43,0.00,,,0.00,390.000000,,2013-03-28 21:02:00,
2013-03-28 14:11:00,44.0,23.0,-100.00,ESE,110,4.0,11.0,43,0.00,,,0.00,390.000000,,2013-03-28 21:11:00,
2013-03-28 14:12:00,47.0,17.0,-100.00,SE,125,4.0,8.0,30,0.00,,,0.00,388.000000,,2013-03-28 21:12:00,
2013-03-28 14:43:00,47.0,17.0,-100.00,SE,125,4.0,8.0,30,0.00,,,0.00,388.000000,,2013-03-28 21:43:00,
2013-03-28 14:53:00,47.0,17.0,-100.00,SE,125,4.0,8.0,30,0.00,,,0.00,388.000000,,2013-03-28 21:53:00,
2013-03-28 15:02:00,47.0,17.0,-100.00,SE,125,4.0,8.0,30,0.00,,,0.00,388.000000,,2013-03-28 22:02:00,
2013-03-28 15:12:00,47.0,19.0,-100.00,West,273,4.0,9.0,33,0.00,,,0.00,259.000000,,2013-03-28 22:12:00,
2013-03-28 15:42:00,47.0,19.0,-100.00,West,273,4.0,9.0,33,0.00,,,0.00,259.000000,,2013-03-28 22:42:00,
2013-03-28 15:52:00,47.0,19.0,-100.00,West,273,4.0,9.0,33,0.00,,,0.00,259.000000,,2013-03-28 22:52:00,
2013-03-28 16:02:00,47.0,19.0,-100.00,West,273,4.0,9.0,33,0.00,,,0.00,259.000000,,2013-03-28 23:02:00,
2013-03-28 16:32:00,46.0,19.0,-100.00,WSW,257,4.0,13.0,33,0.00,,,0.00,297.000000,,2013-03-28 23:32:00,
2013-03-28 16:42:00,46.0,19.0,-100.00,WSW,257,4.0,13.0,33,0.00,,,0.00,297.000000,,2013-03-28 23:42:00,
2013-03-28 16:52:00,46.0,19.0,-100.00,WSW,257,4.0,13.0,33,0.00,,,0.00,297.000000,,2013-03-28 23:52:00,
2013-03-28 17:02:00,46.0,19.0,-100.00,WSW,257,4.0,13.0,33,0.00,,,0.00,297.000000,,2013-03-29 00:02:00,
2013-03-28 17:11:00,46.0,19.0,-100.00,WSW,257,4.0,13.0,33,0.00,,,0.00,297.000000,,2013-03-29 00:11:00,
2013-03-28 18:33:00,41.0,25.0,-100.00,SW,221,3.0,7.0,52,-99.99,,,-99.99,92.000000,,2013-03-29 01:33:00,
2013-03-28 18:42:00,41.0,25.0,-100.00,SW,221,3.0,7.0,52,-99.99,,,-99.99,92.000000,,2013-03-29 01:42:00,
2013-03-28 18:52:00,41.0,25.0,-100.00,SW,221,3.0,7.0,52,-99.99,,,-99.99,92.000000,,2013-03-29 01:52:00,
2013-03-28 19:02:00,41.0,25.0,-100.00,SW,221,3.0,7.0,52,-99.99,,,-99.99,92.000000,,2013-03-29 02:02:00,
2013-03-28 19:11:00,41.0,25.0,-100.00,SW,221,3.0,7.0,52,-99.99,,,-99.99,92.000000,,2013-03-29 02:11:00,
2013-03-28 19:12:00,38.0,23.0,-100.00,WSW,243,5.0,6.0,55,0.00,,,-99.99,16.000000,,2013-03-29 02:12:00,
2013-03-28 19:42:00,38.0,23.0,-100.00,WSW,243,5.0,6.0,55,0.00,,,-99.99,16.000000,,2013-03-29 02:42:00,
2013-03-28 19:52:00,38.0,23.0,-100.00,WSW,243,5.0,6.0,55,0.00,,,-99.99,16.000000,,2013-03-29 02:52:00,
2013-03-28 20:02:00,38.0,23.0,-100.00,WSW,243,5.0,6.0,55,0.00,,,-99.99,16.000000,,2013-03-29 03:02:00,
2013-03-28 20:12:00,40.0,24.0,-100.00,West,265,5.0,12.0,52,0.00,,,-99.99,0.000000,,2013-03-29 03:12:00,
2013-03-28 20:43:00,40.0,24.0,-100.00,West,265,5.0,12.0,52,0.00,,,-99.99,0.000000,,2013-03-29 03:43:00,
2013-03-28 20:53:00,40.0,24.0,-100.00,West,265,5.0,12.0,52,0.00,,,-99.99,0.000000,,2013-03-29 03:53:00,
2013-03-28 21:02:00,40.0,24.0,-100.00,West,265,5.0,12.0,52,0.00,,,-99.99,0.000000,,2013-03-29 04:02:00,
2013-03-28 21:12:00,39.0,26.0,-100.00,WSW,249,9.0,14.0,60,0.00,,,-99.99,0.000000,,2013-03-29 04:12:00,
2013-03-28 21:43:00,39.0,26.0,-100.00,WSW,249,9.0,14.0,60,0.00,,,-99.99,0.000000,,2013-03-29 04:43:00,
2013-03-28 21:52:00,39.0,26.0,-100.00,WSW,249,9.0,14.0,60,0.00,,,-99.99,0.000000,,2013-03-29 04:52:00,
2013-03-28 22:02:00,39.0,26.0,-100.00,WSW,249,9.0,14.0,60,0.00,,,-99.99,0.000000,,2013-03-29 05:02:00,
2013-03-28 22:12:00,37.0,28.0,-100.00,WSW,251,10.0,20.0,71,0.00,,,-99.99,0.000000,,2013-03-29 05:12:00,
2013-03-28 22:33:00,37.0,28.0,-100.00,WSW,251,10.0,20.0,71,0.00,,,-99.99,0.000000,,2013-03-29 05:33:00,
2013-03-28 22:43:00,37.0,28.0,-100.00,WSW,251,10.0,20.0,71,0.00,,,-99.99,0.000000,,2013-03-29 05:43:00,
2013-03-28 22:52:00,37.0,28.0,-100.00,WSW,251,10.0,20.0,71,0.00,,,-99.99,0.000000,,2013-03-29 05:52:00,
2013-03-28 23:02:00,37.0,28.0,-100.00,WSW,251,10.0,20.0,71,0.00,,,-99.99,0.000000,,2013-03-29 06:02:00,
2013-03-28 23:12:00,36.0,26.0,-100.00,WSW,246,7.0,14.0,66,0.00,,,-99.99,0.000000,,2013-03-29 06:12:00,
2013-03-28 23:42:00,36.0,26.0,-100.00,WSW,246,7.0,14.0,66,0.00,,,-99.99,0.000000,,2013-03-29 06:42:00,
2013-03-28 23:52:00,36.0,26.0,-100.00,WSW,246,7.0,14.0,66,0.00,,,-99.99,0.000000,,2013-03-29 06:52:00,